sensor_id;sensor_type;location;lat;lon;timestamp;pressure;altitude;pressure_sealevel;temperature;humidity
45939;BME280;31650;48.818;9.116;2024-03-22T00:06:47;98813.75;;;6.70;100.00
45939;BME280;31650;48.818;9.116;2024-03-22T00:21:47;98804.09;;;6.28;100.00
45939;BME280;31650;48.818;9.116;2024-03-22T00:36:47;98788.97;;;6.02;100.00
45939;BME280;31650;48.818;9.116;2024-03-22T00:51:48;98779.19;;;5.68;100.00
45939;BME280;31650;48.818;9.116;2024-03-22T01:06:48;98758.44;;;5.28;100.00
45939;BME280;31650;48.818;9.116;2024-03-22T01:21:49;98752.38;;;5.18;100.00
45939;BME280;31650;48.818;9.116;2024-03-22T01:36:49;98743.72;;;4.98;100.00
45939;BME280;31650;48.818;9.116;2024-03-22T01:51:50;98734.13;;;4.95;100.00
45939;BME280;31650;48.818;9.116;2024-03-22T02:06:50;98722.47;;;4.70;100.00
45939;BME280;31650;48.818;9.116;2024-03-22T02:21:50;98704.31;;;4.97;100.00
45939;BME280;31650;48.818;9.116;2024-03-22T02:36:51;98699.06;;;4.70;100.00
45939;BME280;31650;48.818;9.116;2024-03-22T02:51:51;98682.16;;;4.52;100.00
45939;BME280;31650;48.818;9.116;2024-03-22T03:06:51;98674.84;;;4.95;100.00
45939;BME280;31650;48.818;9.116;2024-03-22T03:21:51;98674.84;;;5.11;100.00
45939;BME280;31650;48.818;9.116;2024-03-22T03:36:52;98663.88;;;4.80;100.00
45939;BME280;31650;48.818;9.116;2024-03-22T03:51:52;98662.88;;;4.73;100.00
45939;BME280;31650;48.818;9.116;2024-03-22T04:06:52;98656.28;;;4.67;100.00
45939;BME280;31650;48.818;9.116;2024-03-22T04:21:53;98651.75;;;4.93;100.00
45939;BME280;31650;48.818;9.116;2024-03-22T04:36:53;98653.13;;;5.38;100.00
45939;BME280;31650;48.818;9.116;2024-03-22T04:51:54;98666.75;;;5.61;100.00
45939;BME280;31650;48.818;9.116;2024-03-22T05:06:55;98662.63;;;5.81;100.00
45939;BME280;31650;48.818;9.116;2024-03-22T05:21:55;98657.59;;;5.78;100.00
45939;BME280;31650;48.818;9.116;2024-03-22T05:36:55;98639.50;;;5.87;100.00
45939;BME280;31650;48.818;9.116;2024-03-22T05:51:56;98620.59;;;6.34;100.00
45939;BME280;31650;48.818;9.116;2024-03-22T06:06:56;98612.84;;;6.63;100.00
45939;BME280;31650;48.818;9.116;2024-03-22T06:21:59;98604.13;;;6.75;100.00
45939;BME280;31650;48.818;9.116;2024-03-22T06:37:00;98581.84;;;7.34;100.00
45939;BME280;31650;48.818;9.116;2024-03-22T06:52:01;98554.94;;;8.43;100.00
45939;BME280;31650;48.818;9.116;2024-03-22T07:07:01;98462.03;;;10.70;100.00
45939;BME280;31650;48.818;9.116;2024-03-22T07:22:07;98399.13;;;13.59;100.00
45939;BME280;31650;48.818;9.116;2024-03-22T07:37:08;98369.34;;;15.47;92.25
45939;BME280;31650;48.818;9.116;2024-03-22T07:52:09;98349.66;;;17.70;77.06
45939;BME280;31650;48.818;9.116;2024-03-22T08:07:09;98348.66;;;19.53;64.19
45939;BME280;31650;48.818;9.116;2024-03-22T08:22:10;98324.56;;;21.19;57.70
45939;BME280;31650;48.818;9.116;2024-03-22T08:37:10;98324.09;;;20.55;55.44
45939;BME280;31650;48.818;9.116;2024-03-22T08:52:10;98326.53;;;17.66;61.93
45939;BME280;31650;48.818;9.116;2024-03-22T09:07:10;98307.69;;;17.09;65.02
45939;BME280;31650;48.818;9.116;2024-03-22T09:22:12;98286.00;;;18.38;60.02
45939;BME280;31650;48.818;9.116;2024-03-22T09:37:12;98269.06;;;21.00;53.25
45939;BME280;31650;48.818;9.116;2024-03-22T09:52:13;98259.19;;;20.02;53.43
45939;BME280;31650;48.818;9.116;2024-03-22T10:07:14;98240.97;;;20.21;54.24
45939;BME280;31650;48.818;9.116;2024-03-22T10:22:15;98216.66;;;19.72;56.13
45939;BME280;31650;48.818;9.116;2024-03-22T10:37:16;98186.84;;;20.40;55.12
45939;BME280;31650;48.818;9.116;2024-03-22T10:52:17;98165.91;;;19.63;57.27
45939;BME280;31650;48.818;9.116;2024-03-22T11:07:20;98149.25;;;19.11;59.06
45939;BME280;31650;48.818;9.116;2024-03-22T11:22:21;98123.72;;;19.88;54.01
45939;BME280;31650;48.818;9.116;2024-03-22T11:37:21;98103.00;;;20.16;51.98
45939;BME280;31650;48.818;9.116;2024-03-22T11:52:25;98068.50;;;21.28;47.11
45939;BME280;31650;48.818;9.116;2024-03-22T12:07:25;98047.31;;;20.63;49.12
45939;BME280;31650;48.818;9.116;2024-03-22T12:22:25;98008.41;;;20.60;48.54
45939;BME280;31650;48.818;9.116;2024-03-22T12:37:26;97980.84;;;19.74;50.00
45939;BME280;31650;48.818;9.116;2024-03-22T12:52:26;97960.06;;;20.03;50.68
45939;BME280;31650;48.818;9.116;2024-03-22T13:07:26;97930.66;;;20.32;50.38
45939;BME280;31650;48.818;9.116;2024-03-22T13:22:27;97901.16;;;19.63;51.51
45939;BME280;31650;48.818;9.116;2024-03-22T13:37:28;97887.63;;;19.66;50.01
45939;BME280;31650;48.818;9.116;2024-03-22T13:52:29;97867.31;;;19.42;51.21
45939;BME280;31650;48.818;9.116;2024-03-22T14:07:29;97855.53;;;18.54;56.08
45939;BME280;31650;48.818;9.116;2024-03-22T14:22:29;97850.47;;;17.84;51.83
45939;BME280;31650;48.818;9.116;2024-03-22T14:37:31;97816.84;;;17.77;49.62
45939;BME280;31650;48.818;9.116;2024-03-22T14:52:31;97805.81;;;17.57;50.07
45939;BME280;31650;48.818;9.116;2024-03-22T15:07:31;97788.72;;;17.39;48.91
45939;BME280;31650;48.818;9.116;2024-03-22T15:22:31;97761.44;;;17.22;51.65
45939;BME280;31650;48.818;9.116;2024-03-22T15:37:31;97746.47;;;16.93;54.90
45939;BME280;31650;48.818;9.116;2024-03-22T15:52:32;97726.78;;;16.64;55.92
45939;BME280;31650;48.818;9.116;2024-03-22T16:07:32;97718.06;;;16.29;60.76
45939;BME280;31650;48.818;9.116;2024-03-22T16:22:32;97700.53;;;16.35;59.74
45939;BME280;31650;48.818;9.116;2024-03-22T16:37:38;97690.59;;;16.24;62.11
45939;BME280;31650;48.818;9.116;2024-03-22T16:52:38;97690.28;;;15.29;68.21
45939;BME280;31650;48.818;9.116;2024-03-22T17:07:39;97684.47;;;14.37;73.23
45939;BME280;31650;48.818;9.116;2024-03-22T17:22:39;97663.81;;;14.07;78.16
45939;BME280;31650;48.818;9.116;2024-03-22T17:37:39;97651.47;;;13.71;83.24
45939;BME280;31650;48.818;9.116;2024-03-22T17:52:40;97653.19;;;13.43;86.51
45939;BME280;31650;48.818;9.116;2024-03-22T18:07:46;97657.38;;;13.06;89.03
45939;BME280;31650;48.818;9.116;2024-03-22T18:22:47;97649.59;;;12.57;90.97
45939;BME280;31650;48.818;9.116;2024-03-22T18:37:47;97649.06;;;12.31;91.58
45939;BME280;31650;48.818;9.116;2024-03-22T18:52:47;97647.06;;;12.03;94.15
45939;BME280;31650;48.818;9.116;2024-03-22T19:07:47;97632.31;;;11.45;98.22
45939;BME280;31650;48.818;9.116;2024-03-22T19:22:50;97623.53;;;10.90;100.00
45939;BME280;31650;48.818;9.116;2024-03-22T19:37:50;97617.59;;;10.32;100.00
45939;BME280;31650;48.818;9.116;2024-03-22T19:52:51;97607.22;;;10.41;100.00
45939;BME280;31650;48.818;9.116;2024-03-22T20:08:09;97595.25;;;10.30;100.00
45939;BME280;31650;48.818;9.116;2024-03-22T20:23:10;97593.00;;;9.65;100.00
